createdAt,value
2018-07-26T00:02:30.298Z,25.20
2018-07-26T00:07:31.640Z,25.10
2018-07-26T00:10:03.321Z,25.10
2018-07-26T00:15:05.731Z,25.00
2018-07-26T00:17:36.852Z,25.00
2018-07-26T00:20:08.785Z,25.00
2018-07-26T00:22:40.842Z,25.00
2018-07-26T00:25:12.064Z,24.90
2018-07-26T00:27:44.052Z,24.90
2018-07-26T00:30:14.824Z,24.90
2018-07-26T00:32:46.396Z,24.90
2018-07-26T00:35:17.506Z,24.90
2018-07-26T00:37:48.381Z,24.80
2018-07-26T00:40:20.401Z,24.80
2018-07-26T00:42:51.630Z,24.80
2018-07-26T00:45:22.720Z,24.80
2018-07-26T00:47:53.213Z,24.80
2018-07-26T00:50:24.517Z,24.80
2018-07-26T00:52:54.907Z,24.80
2018-07-26T00:55:25.717Z,24.80
2018-07-26T00:57:56.067Z,24.80
2018-07-26T01:00:27.592Z,24.70
2018-07-26T01:02:58.347Z,24.70
2018-07-26T01:05:30.222Z,24.70
2018-07-26T01:08:00.901Z,24.60
2018-07-26T01:10:32.114Z,24.60
2018-07-26T01:13:03.126Z,24.60
2018-07-26T01:15:34.163Z,24.60
2018-07-26T01:18:04.850Z,24.60
2018-07-26T01:20:35.644Z,24.60
2018-07-26T01:23:06.091Z,24.60
2018-07-26T01:25:37.380Z,24.50
2018-07-26T01:28:08.117Z,24.50
2018-07-26T01:30:39.471Z,24.50
2018-07-26T01:33:09.568Z,24.50
2018-07-26T01:35:40.425Z,24.40
2018-07-26T01:38:11.377Z,24.40
2018-07-26T01:40:42.327Z,24.40
2018-07-26T01:43:56.866Z,24.30
2018-07-26T01:46:27.639Z,24.30
2018-07-26T01:48:58.615Z,24.30
2018-07-26T01:51:30.421Z,24.20
2018-07-26T01:54:01.522Z,24.20
2018-07-26T01:56:32.323Z,24.10
2018-07-26T01:59:02.863Z,24.10
2018-07-26T02:01:34.071Z,24.10
2018-07-26T02:04:05.119Z,24.00
2018-07-26T02:06:36.111Z,24.00
2018-07-26T02:09:09.604Z,24.00
2018-07-26T02:11:40.453Z,24.00
2018-07-26T02:14:16.158Z,24.00
2018-07-26T02:16:46.771Z,23.90
2018-07-26T02:21:48.268Z,23.90
2018-07-26T02:24:18.999Z,23.90
2018-07-26T02:26:49.692Z,23.90
2018-07-26T02:29:20.525Z,23.80
2018-07-26T02:31:52.226Z,23.80
2018-07-26T02:36:52.835Z,23.80
2018-07-26T02:39:24.173Z,23.80
2018-07-26T02:41:55.500Z,23.70
2018-07-26T02:44:27.054Z,23.70
2018-07-26T02:46:57.529Z,23.70
2018-07-26T02:49:28.675Z,23.70
2018-07-26T02:51:59.789Z,23.70
2018-07-26T02:54:31.044Z,23.60
2018-07-26T02:57:02.027Z,23.60
2018-07-26T02:59:33.342Z,23.60
2018-07-26T03:02:04.531Z,23.60
2018-07-26T03:04:36.399Z,23.50
2018-07-26T03:07:07.592Z,23.50
2018-07-26T03:09:38.568Z,23.50
2018-07-26T03:12:10.189Z,23.50
2018-07-26T03:14:43.453Z,23.40
2018-07-26T03:17:16.159Z,23.40
2018-07-26T03:19:48.283Z,23.40
2018-07-26T03:22:18.981Z,23.40
2018-07-26T03:24:49.719Z,23.40
2018-07-26T03:27:21.375Z,23.30
2018-07-26T03:29:52.438Z,23.30
2018-07-26T03:32:23.702Z,23.30
2018-07-26T03:34:55.333Z,23.30
2018-07-26T03:37:26.563Z,23.30
2018-07-26T03:39:58.031Z,23.30
2018-07-26T03:42:29.582Z,23.30
2018-07-26T03:45:01.006Z,23.30
2018-07-26T03:47:32.038Z,23.30
2018-07-26T03:50:03.154Z,23.30
2018-07-26T03:52:34.471Z,23.30
2018-07-26T03:55:06.436Z,23.20
2018-07-26T03:57:37.525Z,23.20
2018-07-26T04:00:08.477Z,23.20
2018-07-26T04:02:39.609Z,23.20
2018-07-26T04:05:10.946Z,23.20
2018-07-26T04:07:40.830Z,23.20
2018-07-26T04:10:12.333Z,23.20
2018-07-26T04:12:43.550Z,23.20
2018-07-26T04:15:15.190Z,23.20
2018-07-26T04:17:51.224Z,23.20
2018-07-26T04:20:22.782Z,23.20
2018-07-26T04:22:55.189Z,23.20
2018-07-26T04:25:26.561Z,23.20
2018-07-26T04:27:57.640Z,23.20
2018-07-26T04:30:29.262Z,23.20
2018-07-26T04:32:59.803Z,23.20
2018-07-26T04:35:31.157Z,23.20
2018-07-26T04:38:02.622Z,23.20
2018-07-26T04:40:34.538Z,23.20
2018-07-26T04:43:05.699Z,23.20
2018-07-26T04:45:37.318Z,23.20
2018-07-26T04:48:08.251Z,23.20
2018-07-26T04:50:39.025Z,23.30
2018-07-26T04:53:09.506Z,23.30
2018-07-26T04:55:41.486Z,23.30
2018-07-26T04:58:12.805Z,23.40
2018-07-26T05:00:44.502Z,23.40
2018-07-26T05:03:15.198Z,23.40
2018-07-26T05:05:46.525Z,23.40
2018-07-26T05:08:17.375Z,23.50
2018-07-26T05:13:18.570Z,23.60
2018-07-26T05:15:50.054Z,23.60
2018-07-26T05:18:21.735Z,23.60
2018-07-26T05:20:52.977Z,23.70
2018-07-26T05:23:23.620Z,23.70
2018-07-26T05:25:57.323Z,23.70
2018-07-26T05:28:28.505Z,23.80
2018-07-26T05:30:59.504Z,23.80
2018-07-26T05:33:31.914Z,23.90
2018-07-26T05:36:03.441Z,23.90
2018-07-26T05:38:34.129Z,24.00
2018-07-26T05:41:05.377Z,24.00
2018-07-26T05:43:36.462Z,24.10
2018-07-26T05:46:08.419Z,24.20
2018-07-26T05:48:39.722Z,24.20
2018-07-26T05:51:11.110Z,24.30
2018-07-26T05:53:42.096Z,24.40
2018-07-26T05:56:12.971Z,24.40
2018-07-26T06:01:13.460Z,24.60
2018-07-26T06:03:44.166Z,24.70
2018-07-26T06:06:15.352Z,24.80
2018-07-26T06:08:46.061Z,24.90
2018-07-26T06:11:16.712Z,25.00
2018-07-26T06:13:47.692Z,25.10
2018-07-26T06:16:18.706Z,25.20
2018-07-26T06:18:49.110Z,25.20
2018-07-26T06:21:20.475Z,25.30
2018-07-26T06:23:50.909Z,25.40
2018-07-26T06:26:21.945Z,25.50
2018-07-26T06:28:52.855Z,25.50
2018-07-26T06:31:23.489Z,25.60
2018-07-26T06:33:54.253Z,25.70
2018-07-26T06:36:25.454Z,25.80
2018-07-26T06:38:56.527Z,25.90
2018-07-26T06:41:27.912Z,26.00
2018-07-26T06:43:58.052Z,26.10
2018-07-26T06:46:28.769Z,26.20
2018-07-26T06:48:59.884Z,26.30
2018-07-26T06:51:31.428Z,26.30
2018-07-26T06:54:02.723Z,26.40
2018-07-26T06:56:33.924Z,26.50
2018-07-26T06:59:05.773Z,26.60
2018-07-26T07:01:37.452Z,26.80
2018-07-26T07:04:08.511Z,26.90
2018-07-26T07:06:38.781Z,27.00
2018-07-26T07:09:12.253Z,27.10
2018-07-26T07:11:43.521Z,27.20
2018-07-26T07:14:14.801Z,27.30
2018-07-26T07:16:45.936Z,27.40
2018-07-26T07:19:17.332Z,27.50
2018-07-26T07:21:48.324Z,27.60
2018-07-26T07:24:22.572Z,27.70
2018-07-26T07:26:55.165Z,27.80
2018-07-26T07:29:26.948Z,27.90
2018-07-26T07:31:57.703Z,28.00
2018-07-26T07:34:29.085Z,28.10
2018-07-26T07:37:00.167Z,28.20
2018-07-26T07:39:30.586Z,28.30
2018-07-26T07:42:01.804Z,28.40
2018-07-26T07:44:32.075Z,28.50
2018-07-26T07:47:02.856Z,28.60
2018-07-26T07:49:33.151Z,28.70
2018-07-26T07:52:04.552Z,28.80
2018-07-26T07:54:36.295Z,28.90
2018-07-26T07:57:07.503Z,29.00
2018-07-26T07:59:39.031Z,29.10
2018-07-26T08:02:09.595Z,29.10
2018-07-26T08:04:40.633Z,29.20
2018-07-26T08:07:11.364Z,29.30
2018-07-26T08:09:41.770Z,29.30
2018-07-26T08:12:12.582Z,29.40
2018-07-26T08:14:43.308Z,29.40
2018-07-26T08:17:14.381Z,29.50
2018-07-26T08:19:46.275Z,29.60
2018-07-26T08:22:16.923Z,29.60
2018-07-26T08:24:47.681Z,29.70
2018-07-26T08:27:19.367Z,29.70
2018-07-26T08:29:50.226Z,29.80
2018-07-26T08:32:20.900Z,29.80
2018-07-26T08:34:52.789Z,29.90
2018-07-26T08:37:24.620Z,29.90
2018-07-26T08:39:55.301Z,29.90
2018-07-26T08:42:26.177Z,30.00
2018-07-26T08:44:57.474Z,30.00
2018-07-26T08:47:28.547Z,30.10
2018-07-26T08:50:01.156Z,30.10
2018-07-26T08:52:31.916Z,30.20
2018-07-26T08:55:03.495Z,30.30
2018-07-26T09:00:04.910Z,30.50
2018-07-26T09:05:06.198Z,30.70
2018-07-26T09:07:36.913Z,30.90
2018-07-26T09:10:08.350Z,31.00
2018-07-26T09:12:39.596Z,31.10
2018-07-26T09:15:10.885Z,31.20
2018-07-26T09:17:41.843Z,31.40
2018-07-26T09:22:42.689Z,31.80
2018-07-26T09:25:14.215Z,32.10
2018-07-26T09:27:44.823Z,32.40
2018-07-26T09:30:16.440Z,32.70
2018-07-26T09:32:47.617Z,33.00
2018-07-26T09:35:19.318Z,33.40
2018-07-26T09:37:50.003Z,33.70
2018-07-26T09:40:21.227Z,34.10
2018-07-26T09:42:52.102Z,34.50
2018-07-26T09:45:23.809Z,35.00
2018-07-26T09:47:53.868Z,35.40
2018-07-26T09:50:24.690Z,35.80
2018-07-26T09:52:55.745Z,36.20
2018-07-26T09:55:26.493Z,36.70
2018-07-26T09:57:56.590Z,37.10
2018-07-26T10:00:31.848Z,37.40
2018-07-26T10:03:02.074Z,37.70
2018-07-26T10:05:33.412Z,37.90
2018-07-26T10:08:06.596Z,37.90
2018-07-26T10:10:37.311Z,37.70
2018-07-26T10:13:08.155Z,37.50
2018-07-26T10:15:39.846Z,37.20
2018-07-26T10:18:09.759Z,36.80
2018-07-26T10:20:40.151Z,36.30
2018-07-26T10:25:42.241Z,35.50
2018-07-26T10:28:12.689Z,35.10
2018-07-26T10:30:43.661Z,34.80
2018-07-26T10:33:14.988Z,34.40
2018-07-26T10:35:47.144Z,34.10
2018-07-26T10:38:18.086Z,33.90
2018-07-26T10:40:49.012Z,33.70
2018-07-26T10:45:48.811Z,33.50
2018-07-26T10:48:19.342Z,33.40
2018-07-26T10:50:51.244Z,33.30
2018-07-26T10:53:21.599Z,33.20
2018-07-26T10:55:52.706Z,33.10
2018-07-26T10:58:24.129Z,33.10
2018-07-26T11:00:55.475Z,33.10
2018-07-26T11:03:25.951Z,33.10
2018-07-26T11:05:56.108Z,33.00
2018-07-26T11:08:26.863Z,33.00
2018-07-26T11:10:57.410Z,33.00
2018-07-26T11:13:28.432Z,33.00
2018-07-26T11:15:59.780Z,33.00
2018-07-26T11:18:30.370Z,32.90
2018-07-26T11:21:00.976Z,32.90
2018-07-26T11:23:32.273Z,32.90
2018-07-26T11:26:03.328Z,32.90
2018-07-26T11:28:34.688Z,33.00
2018-07-26T11:31:05.791Z,33.10
2018-07-26T11:33:36.794Z,33.10
2018-07-26T11:36:07.515Z,33.10
2018-07-26T11:38:38.298Z,33.10
2018-07-26T11:41:10.653Z,33.10
2018-07-26T11:43:41.807Z,33.10
2018-07-26T11:46:13.948Z,33.10
2018-07-26T11:48:45.872Z,33.10
2018-07-26T11:51:17.810Z,33.10
2018-07-26T11:53:48.640Z,33.10
2018-07-26T11:56:19.614Z,33.20
2018-07-26T11:58:50.565Z,33.20
2018-07-26T12:01:21.080Z,33.20
2018-07-26T12:03:51.987Z,33.20
2018-07-26T12:06:22.728Z,33.30
2018-07-26T12:08:53.211Z,33.30
2018-07-26T12:11:23.817Z,33.30
2018-07-26T12:13:53.816Z,33.30
2018-07-26T12:16:23.979Z,33.30
2018-07-26T12:18:54.361Z,33.30
2018-07-26T12:21:25.203Z,33.30
2018-07-26T12:23:55.865Z,33.30
2018-07-26T12:26:26.079Z,33.40
2018-07-26T12:28:57.373Z,33.50
2018-07-26T12:31:28.487Z,33.50
2018-07-26T12:33:58.253Z,33.50
2018-07-26T12:36:29.633Z,33.50
2018-07-26T12:39:00.618Z,33.50
2018-07-26T12:41:30.649Z,33.50
2018-07-26T12:44:01.092Z,33.50
2018-07-26T12:46:32.270Z,33.50
2018-07-26T12:49:02.689Z,33.50
2018-07-26T12:51:33.538Z,33.60
2018-07-26T12:54:04.523Z,33.60
2018-07-26T12:56:35.653Z,33.70
2018-07-26T13:01:36.996Z,33.70
2018-07-26T13:04:07.395Z,33.70
2018-07-26T13:06:39.574Z,33.70
2018-07-26T13:09:11.656Z,33.80
2018-07-26T13:11:42.317Z,33.90
2018-07-26T13:14:13.339Z,33.90
2018-07-26T13:16:44.693Z,33.90
2018-07-26T13:19:15.210Z,33.90
2018-07-26T13:21:45.918Z,33.90
2018-07-26T13:24:16.555Z,33.90
2018-07-26T13:26:48.447Z,33.90
2018-07-26T13:29:19.540Z,34.00
2018-07-26T13:31:49.835Z,34.00
2018-07-26T13:34:20.204Z,34.00
2018-07-26T13:36:51.114Z,34.00
2018-07-26T13:39:20.674Z,34.00
2018-07-26T13:41:51.618Z,34.10
2018-07-26T13:44:21.718Z,34.10
2018-07-26T13:46:52.671Z,34.10
2018-07-26T13:49:23.151Z,34.00
2018-07-26T13:51:53.963Z,34.00
2018-07-26T13:54:23.744Z,34.10
2018-07-26T13:56:54.170Z,34.10
2018-07-26T13:59:25.120Z,34.10
2018-07-26T14:01:55.545Z,34.10
2018-07-26T14:04:26.233Z,34.10
2018-07-26T14:06:57.940Z,34.20
2018-07-26T14:09:28.620Z,34.20
2018-07-26T14:11:59.500Z,34.20
2018-07-26T14:14:30.344Z,34.20
2018-07-26T14:17:02.074Z,34.20
2018-07-26T14:19:33.341Z,34.30
2018-07-26T14:22:04.813Z,34.30
2018-07-26T14:24:35.346Z,34.40
2018-07-26T14:27:06.745Z,34.40
2018-07-26T14:29:37.607Z,34.40
2018-07-26T14:32:08.488Z,34.50
2018-07-26T14:34:38.867Z,34.50
2018-07-26T14:37:09.795Z,34.60
2018-07-26T14:39:40.942Z,34.60
2018-07-26T14:42:12.570Z,34.60
2018-07-26T14:44:42.483Z,34.60
2018-07-26T14:47:12.930Z,34.60
2018-07-26T14:49:43.680Z,34.60
2018-07-26T14:52:15.718Z,34.60
2018-07-26T14:54:46.523Z,34.60
2018-07-26T14:57:17.351Z,34.70
2018-07-26T14:59:47.023Z,34.60
2018-07-26T15:02:17.408Z,34.60
2018-07-26T15:04:47.809Z,34.60
2018-07-26T15:07:19.068Z,34.50
2018-07-26T15:09:49.939Z,34.60
2018-07-26T15:12:20.862Z,34.50
2018-07-26T15:14:50.935Z,34.60
2018-07-26T15:17:22.456Z,34.60
2018-07-26T15:19:53.283Z,34.70
2018-07-26T15:22:25.000Z,34.80
2018-07-26T15:24:57.134Z,34.90
2018-07-26T15:27:28.401Z,34.90
2018-07-26T15:29:58.735Z,34.90
2018-07-26T15:32:30.060Z,35.00
2018-07-26T15:35:01.062Z,35.00
2018-07-26T15:37:32.197Z,35.00
2018-07-26T15:40:03.566Z,35.00
2018-07-26T15:42:34.549Z,35.00
2018-07-26T15:45:05.596Z,35.00
2018-07-26T15:47:38.085Z,35.00
2018-07-26T15:50:09.778Z,35.00
2018-07-26T15:52:39.788Z,35.00
2018-07-26T15:55:11.414Z,35.00
2018-07-26T15:57:42.238Z,35.00
2018-07-26T16:00:13.827Z,35.00
2018-07-26T16:02:45.047Z,35.00
2018-07-26T16:05:15.915Z,34.90
2018-07-26T16:07:46.513Z,34.90
2018-07-26T16:10:24.180Z,34.90
2018-07-26T16:12:54.961Z,34.90
2018-07-26T16:15:25.858Z,34.80
2018-07-26T16:17:56.972Z,34.90
2018-07-26T16:20:27.286Z,34.80
2018-07-26T16:22:58.746Z,34.90
2018-07-26T16:25:28.749Z,34.90
2018-07-26T16:27:59.290Z,34.90
2018-07-26T16:30:29.846Z,34.90
2018-07-26T16:33:00.247Z,34.80
2018-07-26T16:35:31.244Z,34.80
2018-07-26T16:38:02.454Z,34.70
2018-07-26T16:40:33.630Z,34.70
2018-07-26T16:43:05.146Z,34.60
2018-07-26T16:45:35.474Z,34.60
2018-07-26T16:48:06.653Z,34.60
2018-07-26T16:50:37.218Z,34.60
2018-07-26T16:53:08.754Z,34.70
2018-07-26T16:55:40.025Z,34.70
2018-07-26T16:58:11.921Z,34.70
2018-07-26T17:00:42.870Z,34.70
2018-07-26T17:03:14.240Z,34.70
2018-07-26T17:05:45.727Z,34.70
2018-07-26T17:08:17.035Z,34.70
2018-07-26T17:10:48.158Z,34.70
2018-07-26T17:13:20.018Z,34.70
2018-07-26T17:15:51.006Z,34.60
2018-07-26T17:18:22.583Z,34.70
2018-07-26T17:20:52.603Z,34.70
2018-07-26T17:23:23.797Z,34.60
2018-07-26T17:25:54.747Z,34.60
2018-07-26T17:28:25.235Z,34.60
2018-07-26T17:30:56.295Z,34.60
2018-07-26T17:33:27.005Z,34.50
2018-07-26T17:35:57.300Z,34.50
2018-07-26T17:38:28.026Z,34.40
2018-07-26T17:40:59.114Z,34.30
2018-07-26T17:43:29.921Z,34.30
2018-07-26T17:46:00.134Z,34.30
2018-07-26T17:48:31.506Z,34.20
2018-07-26T17:51:03.040Z,34.20
2018-07-26T17:53:33.779Z,34.10
2018-07-26T17:56:04.253Z,34.10
2018-07-26T17:58:34.576Z,34.10
2018-07-26T18:01:04.610Z,34.00
2018-07-26T18:03:35.733Z,34.00
2018-07-26T18:06:06.173Z,33.90
2018-07-26T18:08:37.156Z,33.80
2018-07-26T18:11:07.728Z,33.80
2018-07-26T18:13:38.919Z,33.70
2018-07-26T18:16:10.367Z,33.70
2018-07-26T18:18:41.242Z,33.60
2018-07-26T18:21:13.191Z,33.50
2018-07-26T18:23:43.591Z,33.50
2018-07-26T18:26:14.794Z,33.40
2018-07-26T18:28:46.235Z,33.40
2018-07-26T18:31:16.416Z,33.30
2018-07-26T18:33:47.695Z,33.20
2018-07-26T18:36:18.500Z,33.20
2018-07-26T18:38:49.467Z,33.10
2018-07-26T18:41:20.679Z,33.10
2018-07-26T18:43:51.413Z,33.00
2018-07-26T18:46:22.721Z,32.90
2018-07-26T18:48:53.071Z,32.80
2018-07-26T18:51:24.214Z,32.80
2018-07-26T18:53:55.190Z,32.70
2018-07-26T18:56:25.981Z,32.60
2018-07-26T19:01:27.853Z,32.50
2018-07-26T19:03:59.060Z,32.50
2018-07-26T19:06:29.338Z,32.40
2018-07-26T19:08:59.390Z,32.30
2018-07-26T19:11:32.052Z,32.30
2018-07-26T19:14:01.899Z,32.10
2018-07-26T19:16:32.962Z,32.10
2018-07-26T19:19:03.794Z,32.00
2018-07-26T19:21:35.597Z,31.90
2018-07-26T19:24:06.473Z,31.70
2018-07-26T19:26:36.576Z,31.60
2018-07-26T19:29:07.447Z,31.60
2018-07-26T19:31:39.022Z,31.40
2018-07-26T19:34:10.663Z,31.40
2018-07-26T19:36:41.288Z,31.30
2018-07-26T19:39:14.035Z,31.20
2018-07-26T19:41:45.442Z,31.10
2018-07-26T19:44:16.385Z,31.00
2018-07-26T19:46:47.227Z,30.90
2018-07-26T19:49:17.454Z,30.90
2018-07-26T19:51:48.550Z,30.80
2018-07-26T19:54:19.239Z,30.70
2018-07-26T19:56:49.786Z,30.60
2018-07-26T19:59:21.287Z,30.60
2018-07-26T20:01:52.466Z,30.50
2018-07-26T20:04:23.803Z,30.50
2018-07-26T20:06:55.393Z,30.40
2018-07-26T20:09:27.326Z,30.30
2018-07-26T20:11:58.654Z,30.30
2018-07-26T20:14:30.069Z,30.20
2018-07-26T20:17:01.283Z,30.20
2018-07-26T20:19:32.317Z,30.10
2018-07-26T20:22:04.154Z,30.00
2018-07-26T20:24:34.928Z,30.00
2018-07-26T20:27:09.337Z,29.90
2018-07-26T20:29:41.006Z,29.80
2018-07-26T20:32:12.384Z,29.80
2018-07-26T20:34:43.708Z,29.70
2018-07-26T20:37:15.725Z,29.60
2018-07-26T20:39:47.386Z,29.50
2018-07-26T20:42:19.135Z,29.50
2018-07-26T20:44:51.023Z,29.40
2018-07-26T20:47:22.102Z,29.30
2018-07-26T20:49:52.871Z,29.20
2018-07-26T20:52:24.281Z,29.10
2018-07-26T20:54:55.722Z,29.10
2018-07-26T20:57:27.216Z,29.00
2018-07-26T20:59:57.788Z,28.90
2018-07-26T21:02:29.054Z,28.80
2018-07-26T21:05:00.005Z,28.70
2018-07-26T21:07:31.916Z,28.60
2018-07-26T21:10:03.539Z,28.50
2018-07-26T21:12:34.786Z,28.50
2018-07-26T21:15:06.133Z,28.40
2018-07-26T21:17:36.973Z,28.30
2018-07-26T21:20:08.326Z,28.30
2018-07-26T21:22:39.736Z,28.20
2018-07-26T21:25:10.447Z,28.10
2018-07-26T21:27:41.685Z,28.10
2018-07-26T21:30:13.095Z,28.10
2018-07-26T21:32:45.192Z,28.00
2018-07-26T21:35:15.736Z,28.00
2018-07-26T21:37:47.063Z,27.90
2018-07-26T21:40:18.137Z,27.90
2018-07-26T21:42:48.741Z,27.80
2018-07-26T21:45:20.373Z,27.80
2018-07-26T21:47:51.933Z,27.70
2018-07-26T21:50:23.543Z,27.70
2018-07-26T21:52:55.328Z,27.60
2018-07-26T21:55:26.572Z,27.60
2018-07-26T21:57:57.865Z,27.60
2018-07-26T22:00:36.952Z,27.50
2018-07-26T22:03:09.202Z,27.50
2018-07-26T22:05:39.882Z,27.40
2018-07-26T22:08:10.999Z,27.40
2018-07-26T22:10:42.111Z,27.30
2018-07-26T22:13:13.487Z,27.30
2018-07-26T22:15:44.113Z,27.20
2018-07-26T22:18:16.292Z,27.20
2018-07-26T22:20:47.322Z,27.20
2018-07-26T22:23:20.144Z,27.20
2018-07-26T22:25:51.220Z,27.20
2018-07-26T22:28:22.751Z,27.20
2018-07-26T22:30:55.953Z,27.20
2018-07-26T22:33:26.893Z,27.20
2018-07-26T22:35:58.197Z,27.10
2018-07-26T22:38:29.453Z,27.10
2018-07-26T22:41:00.262Z,27.10
2018-07-26T22:43:30.745Z,27.00
2018-07-26T22:46:01.326Z,27.00
2018-07-26T22:48:33.456Z,26.90
2018-07-26T22:51:04.690Z,26.90
2018-07-26T22:53:35.715Z,26.80
2018-07-26T22:56:07.080Z,26.80
2018-07-26T22:58:39.046Z,26.80
2018-07-26T23:01:11.538Z,26.70
2018-07-26T23:03:42.901Z,26.70
2018-07-26T23:06:14.017Z,26.60
2018-07-26T23:08:45.062Z,26.60
2018-07-26T23:11:16.997Z,26.50
2018-07-26T23:13:48.381Z,26.50
2018-07-26T23:16:19.300Z,26.50
2018-07-26T23:18:50.749Z,26.40
2018-07-26T23:21:22.297Z,26.40
2018-07-26T23:23:54.513Z,26.30
2018-07-26T23:26:25.423Z,26.30
2018-07-26T23:28:56.934Z,26.20
2018-07-26T23:31:28.944Z,26.20
2018-07-26T23:34:00.375Z,26.10
2018-07-26T23:36:31.106Z,26.10
2018-07-26T23:39:03.200Z,26.00
2018-07-26T23:41:34.569Z,26.00
2018-07-26T23:44:05.505Z,25.90
2018-07-26T23:46:37.404Z,25.90
2018-07-26T23:49:08.810Z,25.90
2018-07-26T23:51:39.836Z,25.80
2018-07-26T23:54:11.027Z,25.80
2018-07-26T23:56:42.506Z,25.70
2018-07-26T23:59:14.499Z,25.60
